createdAt,value
2019-05-22T00:00:30.363Z,0.63
2019-05-22T00:03:03.859Z,0.77
2019-05-22T00:05:37.268Z,0.70
2019-05-22T00:08:08.652Z,0.83
2019-05-22T00:10:39.415Z,0.80
2019-05-22T00:13:13.011Z,1.33
2019-05-22T00:15:43.038Z,2.87
2019-05-22T00:18:12.932Z,0.80
2019-05-22T00:20:42.190Z,1.43
2019-05-22T00:23:15.407Z,0.63
2019-05-22T00:25:44.913Z,1.47
2019-05-22T00:28:15.447Z,0.67
2019-05-22T00:30:49.346Z,0.60
2019-05-22T00:33:21.214Z,0.60
2019-05-22T00:35:53.050Z,0.80
2019-05-22T00:38:23.438Z,1.33
2019-05-22T00:40:57.470Z,0.80
2019-05-22T00:43:34.126Z,0.80
2019-05-22T00:46:05.309Z,0.67
2019-05-22T00:48:36.464Z,0.57
2019-05-22T00:51:10.681Z,0.80
2019-05-22T00:53:58.062Z,0.60
2019-05-22T00:56:31.564Z,0.60
2019-05-22T00:59:02.702Z,0.60
2019-05-22T01:01:39.590Z,0.80
2019-05-22T01:04:11.922Z,0.60
2019-05-22T01:06:42.965Z,0.70
2019-05-22T01:09:16.969Z,1.73
2019-05-22T01:11:48.056Z,0.80
2019-05-22T01:14:18.948Z,0.70
2019-05-22T01:16:49.708Z,0.73
2019-05-22T01:19:19.303Z,0.50
2019-05-22T01:21:49.016Z,0.73
2019-05-22T01:24:18.470Z,0.70
2019-05-22T01:26:50.149Z,0.57
2019-05-22T01:29:23.253Z,0.80
2019-05-22T01:31:54.003Z,0.77
2019-05-22T01:34:24.950Z,0.90
2019-05-22T01:36:56.442Z,0.63
2019-05-22T01:39:38.040Z,0.70
2019-05-22T01:42:10.563Z,0.80
2019-05-22T01:44:40.726Z,0.60
2019-05-22T01:47:17.107Z,0.60
2019-05-22T01:49:51.539Z,0.77
2019-05-22T01:52:22.836Z,0.80
2019-05-22T01:55:59.863Z,1.00
2019-05-22T01:58:30.843Z,1.57
2019-05-22T02:01:02.370Z,2.10
2019-05-22T02:03:33.790Z,0.80
2019-05-22T02:06:05.397Z,2.40
2019-05-22T02:08:41.670Z,0.60
2019-05-22T02:11:13.420Z,0.93
2019-05-22T02:13:46.556Z,1.23
2019-05-22T02:16:16.892Z,0.80
2019-05-22T02:18:46.247Z,2.27
2019-05-22T02:21:17.081Z,1.00
2019-05-22T02:23:47.624Z,0.40
2019-05-22T02:26:18.094Z,0.63
2019-05-22T02:28:47.564Z,0.67
2019-05-22T02:31:18.561Z,0.60
2019-05-22T02:34:04.753Z,0.50
2019-05-22T02:36:34.977Z,1.17
2019-05-22T02:39:14.541Z,0.63
2019-05-22T02:41:48.355Z,1.17
2019-05-22T02:44:18.011Z,1.07
2019-05-22T02:46:47.580Z,0.40
2019-05-22T02:49:17.454Z,0.60
2019-05-22T02:51:47.927Z,0.50
2019-05-22T02:54:17.758Z,0.40
2019-05-22T02:56:47.581Z,0.57
2019-05-22T02:59:18.134Z,0.50
2019-05-22T03:01:48.856Z,0.47
2019-05-22T03:04:19.579Z,0.37
2019-05-22T03:06:49.245Z,0.40
2019-05-22T03:09:20.288Z,1.23
2019-05-22T03:11:54.951Z,0.37
2019-05-22T03:14:27.206Z,4.83
2019-05-22T03:17:04.653Z,1.17
2019-05-22T03:19:36.674Z,0.47
2019-05-22T03:22:26.331Z,1.03
2019-05-22T03:24:56.866Z,1.00
2019-05-22T03:27:43.414Z,0.53
2019-05-22T03:30:27.224Z,0.40
2019-05-22T03:32:59.385Z,0.20
2019-05-22T03:35:30.465Z,0.50
2019-05-22T03:38:02.006Z,0.50
2019-05-22T03:40:32.062Z,0.40
2019-05-22T03:43:04.014Z,0.53
2019-05-22T03:45:35.199Z,0.60
2019-05-22T03:48:05.117Z,0.40
2019-05-22T03:50:34.730Z,0.50
2019-05-22T03:53:07.337Z,2.00
2019-05-22T03:55:36.945Z,0.40
2019-05-22T03:58:06.335Z,1.90
2019-05-22T04:00:36.123Z,0.50
2019-05-22T04:03:05.932Z,0.67
2019-05-22T04:05:42.466Z,0.40
2019-05-22T04:08:13.411Z,0.70
2019-05-22T04:11:02.091Z,1.20
2019-05-22T04:13:34.429Z,0.40
2019-05-22T04:16:05.581Z,2.27
2019-05-22T04:18:36.069Z,0.40
2019-05-22T04:21:05.995Z,0.37
2019-05-22T04:23:37.091Z,0.80
2019-05-22T04:26:08.839Z,0.60
2019-05-22T04:28:46.259Z,2.47
2019-05-22T04:31:16.143Z,0.37
2019-05-22T04:33:45.545Z,0.57
2019-05-22T04:36:15.810Z,2.23
2019-05-22T04:38:45.260Z,0.40
2019-05-22T04:41:14.601Z,0.40
2019-05-22T04:43:43.978Z,0.30
2019-05-22T04:46:13.415Z,0.87
2019-05-22T04:48:45.865Z,0.40
2019-05-22T04:51:22.761Z,1.43
2019-05-22T04:53:52.721Z,0.97
2019-05-22T16:12:05.197Z,8.73
2019-05-22T16:14:35.170Z,7.17
2019-05-22T16:19:50.734Z,5.60
2019-05-22T16:22:20.415Z,11.50
2019-05-22T16:24:49.910Z,8.10
2019-05-22T16:27:19.425Z,7.90
2019-05-22T16:29:49.960Z,8.30
2019-05-22T16:32:19.371Z,9.97
2019-05-22T16:34:49.148Z,11.00
2019-05-22T16:37:18.835Z,7.07
2019-05-22T16:39:50.461Z,7.57
2019-05-22T16:42:19.409Z,7.77
2019-05-22T16:44:49.813Z,9.70
2019-05-22T16:47:19.102Z,7.80
2019-05-22T16:49:48.347Z,7.87
2019-05-22T16:52:17.898Z,9.07
2019-05-22T16:54:47.557Z,7.93
2019-05-22T16:57:17.477Z,6.83
2019-05-22T16:59:46.719Z,7.30
2019-05-22T17:02:16.944Z,7.53
2019-05-22T17:04:47.084Z,7.57
2019-05-22T17:07:16.427Z,6.30
2019-05-22T17:09:46.376Z,7.87
2019-05-22T17:12:18.310Z,7.37
2019-05-22T17:14:48.540Z,8.10
2019-05-22T17:17:18.236Z,7.03
2019-05-22T17:19:47.612Z,8.90
2019-05-22T17:22:16.935Z,8.57
2019-05-22T17:24:46.525Z,6.93
2019-05-22T17:27:17.172Z,9.03
2019-05-22T17:29:48.715Z,7.47
2019-05-22T17:32:18.262Z,6.60
2019-05-22T17:34:48.029Z,8.00
2019-05-22T17:37:21.097Z,8.60
2019-05-22T17:39:50.535Z,10.33
2019-05-22T17:42:20.366Z,6.33
2019-05-22T17:44:50.608Z,7.17
2019-05-22T17:47:22.518Z,7.17
2019-05-22T17:49:52.123Z,8.57
2019-05-22T17:52:22.183Z,7.60
2019-05-22T17:54:52.061Z,7.03
2019-05-22T17:57:23.193Z,9.30
2019-05-22T17:59:52.618Z,7.17
2019-05-22T18:02:24.702Z,7.73
2019-05-22T18:04:54.262Z,7.00
2019-05-22T18:07:24.096Z,11.83
2019-05-22T18:09:53.933Z,7.47
2019-05-22T18:12:24.739Z,8.40
2019-05-22T18:14:54.018Z,7.97
2019-05-22T18:17:23.524Z,7.93
2019-05-22T18:19:53.324Z,9.47
2019-05-22T18:23:54.892Z,7.10
2019-05-22T18:26:24.513Z,7.93
2019-05-22T18:28:53.974Z,8.03
2019-05-22T18:31:23.369Z,9.13
2019-05-22T18:33:52.575Z,8.20
2019-05-22T18:36:21.987Z,7.50
2019-05-22T18:38:51.608Z,9.50
2019-05-22T18:41:21.030Z,8.53
2019-05-22T18:43:50.671Z,8.47
2019-05-22T18:46:20.323Z,9.70
2019-05-22T18:48:50.760Z,9.60
2019-05-22T18:51:20.111Z,9.67
2019-05-22T18:53:49.754Z,9.53
2019-05-22T18:56:19.083Z,8.43
2019-05-22T18:58:48.665Z,11.40
2019-05-22T19:01:21.490Z,8.17
2019-05-22T19:03:51.718Z,9.20
2019-05-22T19:06:30.730Z,9.47
2019-05-22T19:08:59.246Z,8.97
2019-05-22T19:11:28.628Z,8.27
2019-05-22T19:13:57.879Z,8.07
2019-05-22T19:16:27.492Z,13.03
2019-05-22T19:18:56.591Z,19.27
2019-05-22T19:21:27.416Z,23.27
2019-05-22T19:23:58.142Z,29.40
2019-05-22T19:26:27.554Z,24.17
2019-05-22T19:29:02.739Z,13.27
2019-05-22T19:31:32.729Z,13.50
2019-05-22T19:34:02.623Z,17.73
2019-05-22T19:36:31.809Z,15.17
2019-05-22T19:39:01.330Z,21.27
2019-05-22T19:41:31.335Z,19.60
2019-05-22T19:44:00.524Z,12.63
2019-05-22T19:46:29.740Z,12.20
2019-05-22T19:48:59.188Z,17.90
2019-05-22T19:51:28.526Z,12.57
2019-05-22T19:53:58.066Z,19.27
2019-05-22T19:56:28.260Z,13.37
2019-05-22T19:58:57.567Z,14.37
2019-05-22T20:01:27.237Z,11.73
2019-05-22T20:03:56.292Z,13.67
2019-05-22T20:06:25.303Z,10.40
2019-05-22T20:08:54.804Z,12.30
2019-05-22T20:11:24.654Z,17.80
2019-05-22T20:13:53.987Z,11.80
2019-05-22T20:16:23.068Z,9.87
2019-05-22T20:18:52.342Z,10.20
2019-05-22T20:21:21.827Z,10.80
2019-05-22T20:23:51.100Z,9.97
2019-05-22T20:26:21.199Z,12.10
2019-05-22T20:28:50.946Z,11.57
2019-05-22T20:31:57.157Z,10.50
2019-05-22T20:34:26.596Z,13.03
2019-05-22T20:36:55.968Z,11.90
2019-05-22T20:39:29.313Z,13.07
2019-05-22T20:41:56.517Z,12.90
2019-05-22T20:44:26.447Z,14.97
2019-05-22T20:46:56.799Z,11.60
2019-05-22T20:49:26.610Z,13.93
2019-05-22T20:51:56.747Z,12.30
2019-05-22T20:54:26.707Z,13.47
2019-05-22T20:56:57.175Z,12.77
2019-05-22T20:59:27.235Z,10.13
2019-05-22T21:01:56.410Z,11.07
2019-05-22T21:04:27.453Z,14.60
2019-05-22T21:07:01.089Z,12.57
2019-05-22T21:09:30.187Z,12.37
2019-05-22T21:11:59.757Z,11.43
2019-05-22T21:14:29.424Z,11.63
2019-05-22T21:16:59.351Z,11.67
2019-05-22T21:19:29.259Z,10.20
2019-05-22T21:21:59.512Z,13.33
2019-05-22T21:24:28.766Z,12.60
2019-05-22T21:26:58.109Z,14.20
2019-05-22T21:29:27.988Z,12.20
2019-05-22T21:31:56.994Z,12.03
2019-05-22T21:34:26.323Z,10.60
2019-05-22T21:36:55.522Z,11.83
2019-05-22T21:39:24.859Z,9.90
2019-05-22T21:41:54.377Z,10.17
2019-05-22T21:44:23.864Z,11.60
2019-05-22T21:46:53.952Z,14.50
2019-05-22T21:49:24.098Z,10.80
2019-05-22T21:51:53.703Z,13.53
2019-05-22T21:54:22.968Z,11.10
2019-05-22T21:56:52.344Z,12.00
2019-05-22T21:59:21.760Z,12.00
2019-05-22T22:01:55.647Z,14.27
2019-05-22T22:04:26.653Z,12.67
2019-05-22T22:06:55.811Z,10.87
2019-05-22T22:09:26.633Z,10.90
2019-05-22T22:11:56.150Z,9.90
2019-05-22T22:14:26.702Z,10.73
2019-05-22T22:16:57.813Z,10.50
2019-05-22T22:19:28.291Z,10.60
2019-05-22T22:21:57.675Z,11.10
2019-05-22T22:24:28.115Z,9.87
2019-05-22T22:26:57.757Z,10.97
2019-05-22T22:29:27.368Z,12.33
2019-05-22T22:31:59.169Z,9.43
2019-05-22T22:34:34.613Z,10.30
2019-05-22T22:37:04.535Z,9.23
2019-05-22T22:39:34.940Z,9.30
2019-05-22T22:42:04.622Z,9.77
2019-05-22T22:44:35.799Z,11.93
2019-05-22T22:47:13.849Z,10.03
2019-05-22T22:49:44.074Z,11.53
2019-05-22T22:52:14.266Z,10.90
2019-05-22T22:54:44.258Z,10.80
2019-05-22T22:57:13.702Z,10.03
2019-05-22T22:59:43.388Z,11.97
2019-05-22T23:04:05.530Z,12.07
2019-05-22T23:06:36.305Z,12.47
2019-05-22T23:09:07.322Z,10.40
2019-05-22T23:11:40.632Z,10.40
2019-05-22T23:14:10.145Z,11.07
2019-05-22T23:16:40.867Z,10.90
2019-05-22T23:19:17.092Z,10.43
2019-05-22T23:21:47.427Z,11.03
2019-05-22T23:24:16.871Z,10.43
2019-05-22T23:26:47.563Z,11.50
2019-05-22T23:32:06.132Z,9.87
2019-05-22T23:34:35.638Z,11.47
2019-05-22T23:37:06.918Z,10.53
2019-05-22T23:39:36.369Z,10.43
2019-05-22T23:42:16.282Z,12.43
2019-05-22T23:44:46.597Z,10.30
2019-05-22T23:47:16.026Z,14.90
2019-05-22T23:49:45.814Z,12.60
2019-05-22T23:52:17.572Z,11.40
2019-05-22T23:54:48.607Z,13.57
2019-05-22T23:57:27.569Z,11.43
